Thunder radar more information blitzortung!


Radar de pluja more information rain snow radar


Visita la nostra xarxa de llocs de meteo:

Template documentation
and downloads

And another site



Extreme low temperature From: 13-12-2017 09:00 Until: 09:59 warning for: Extreme low temperature Level: Yellow info button

Pagina Historial Weather Underground text

Diari Resum Octubre 23, 2017 Unitats:  Imperial    Mètric   Tant
« Previous Dia
SegĂźent Dia »
Diari Setmana Mensual Anual Personalitzada
  Maxima: Minima: Media:
Temperatura: 72.3 °F 49.6 °F 61.3 °F
Punt de rosada: 51.6 °F 41 °F 45.5 °F
Humitat: 74 % 44 % 57 %
Wind Speed: 8.1 mph 0 mph 2.1 mph
RĂ fegues de vent: 8.1 mph - -
Vent:- - South
Pression baro: 30.3 in 30.2 in -
Precipitacions: 0 in    
Historical Graphs
 
 
Dades de taula per Octubre 23, 2017
Temps Temperatura Punt de rosada Pression baro Vent Wind Speed RĂ fegues de vent Humitat Rainfall Rate (Hourly)
00:01 55.6 °F 41.9 °F 30.3 in WSW 2.3 mph   60 % 0 in
00:06 55.8 °F 41.5 °F 30.3 in West 2.3 mph 2.3 mph 59 % 0 in
01:55 51.4 °F 41.5 °F 30.3 in Calm   1 mph 69 % 0 in
02:05 51.1 °F 41.4 °F 30.3 in Calm   1 mph 69 % 0 in
02:15 50.7 °F 41.4 °F 30.3 in West 1 mph 1 mph 70 % 0 in
02:25 50.5 °F 41.2 °F 30.3 in Calm     70 % 0 in
02:35 50.4 °F 41.4 °F 30.3 in Calm     71 % 0 in
02:45 50.2 °F 41.2 °F 30.3 in Calm   2 mph 71 % 0 in
02:55 50 °F 41 °F 30.3 in Calm   1 mph 71 % 0 in
03:05 49.6 °F 41 °F 30.3 in NW 1 mph 2 mph 72 % 0 in
03:15 49.6 °F 41 °F 30.3 in Calm   1 mph 72 % 0 in
03:25 49.6 °F 41 °F 30.3 in Calm     72 % 0 in
03:35 49.6 °F 41.4 °F 30.3 in WNW 1 mph 1 mph 73 % 0 in
03:45 49.8 °F 41.5 °F 30.3 in West 1 mph 1 mph 73 % 0 in
03:55 51.4 °F 43.3 °F 30.3 in Calm   1 mph 74 % 0 in
04:05 52.5 °F 43.9 °F 30.3 in North 2 mph 3 mph 72 % 0 in
04:15 53.2 °F 43.7 °F 30.3 in NNW 1 mph 2 mph 70 % 0 in
04:25 54 °F 44.1 °F 30.3 in North 1 mph 2 mph 69 % 0 in
04:35 54.9 °F 45 °F 30.3 in NNE 1 mph 1 mph 69 % 0 in
04:45 55.2 °F 44.8 °F 30.3 in Calm   2 mph 68 % 0 in
04:55 55.9 °F 45.5 °F 30.3 in North 1 mph 2 mph 68 % 0 in
05:05 55.4 °F 44.6 °F 30.3 in NE 2 mph 3 mph 67 % 0 in
05:15 55.8 °F 45 °F 30.3 in NE 2 mph 3 mph 67 % 0 in
10:24 56.1 °F 45 °F 30.3 in North 2.9 mph 2.9 mph 66 % 0 in
10:27 56.3 °F 45.1 °F 30.3 in ENE 3.5 mph 3.5 mph 66 % 0 in
10:32 57 °F 45.9 °F 30.3 in WNW 3.5 mph 3.5 mph 66 % 0 in
10:37 56.8 °F 45.7 °F 30.3 in NE 4.6 mph 4.6 mph 66 % 0 in
10:42 56.7 °F 45 °F 30.3 in ENE 4.6 mph 4.6 mph 65 % 0 in
10:47 57.2 °F 45.5 °F 30.3 in NNE 4.6 mph 4.6 mph 65 % 0 in
10:52 56.8 °F 45.1 °F 30.3 in NNE 4.6 mph 4.6 mph 65 % 0 in
10:57 57 °F 45 °F 30.3 in NE 4.6 mph 4.6 mph 64 % 0 in
11:02 57.9 °F 46.2 °F 30.3 in ESE 3.5 mph 3.5 mph 65 % 0 in
11:07 59 °F 47.1 °F 30.3 in NNE 1.2 mph   65 % 0 in
11:12 58.6 °F 46.6 °F 30.3 in ENE 3.5 mph 3.5 mph 64 % 0 in
11:17 58.6 °F 46.6 °F 30.3 in NNW 4.6 mph 4.6 mph 64 % 0 in
11:22 59.2 °F 46.9 °F 30.3 in NE 3.5 mph 3.5 mph 64 % 0 in
11:27 59.5 °F 46.9 °F 30.3 in NE 2.3 mph 2.3 mph 63 % 0 in
11:32 59.5 °F 46.9 °F 30.3 in NNE 4.6 mph 4.6 mph 63 % 0 in
11:37 59.5 °F 46.9 °F 30.3 in ENE 2.4 mph 2.4 mph 63 % 0 in
11:42 59.5 °F 46.6 °F 30.3 in East 2.9 mph 2.9 mph 62 % 0 in
11:47 59.9 °F 46.8 °F 30.3 in ENE 5.8 mph 5.8 mph 62 % 0 in
11:52 60.3 °F 47.1 °F 30.3 in NNE 3.6 mph 3.6 mph 62 % 0 in
11:57 60.4 °F 47.5 °F 30.3 in NNE 2.6 mph 2.6 mph 62 % 0 in
12:02 61.2 °F 48 °F 30.3 in East 1.2 mph   62 % 0 in
12:07 62.1 °F 48.9 °F 30.3 in ESE 2.3 mph 2.3 mph 62 % 0 in
12:12 62.8 °F 48.7 °F 30.3 in East 2.3 mph 2.3 mph 60 % 0 in
12:17 63 °F 48.4 °F 30.3 in ESE 3.5 mph 3.5 mph 59 % 0 in
12:22 63.3 °F 48.4 °F 30.3 in ESE 2.3 mph 2.4 mph 58 % 0 in
12:27 63.5 °F 48.9 °F 30.3 in WSW 2.3 mph 2.3 mph 59 % 0 in
12:32 63.7 °F 48.6 °F 30.3 in East 3.5 mph 3.5 mph 58 % 0 in
12:37 63.1 °F 48 °F 30.3 in ESE 3.5 mph 3.5 mph 58 % 0 in
12:42 64 °F 49.5 °F 30.3 in ESE 3.3 mph 3.3 mph 59 % 0 in
12:47 63.7 °F 48.6 °F 30.3 in NNE 3.5 mph 3.5 mph 58 % 0 in
12:52 63.7 °F 48.2 °F 30.3 in NNE 3.5 mph 3.5 mph 57 % 0 in
12:53 63.7 °F 48.2 °F 30.3 in ENE 2.3 mph 2.3 mph 57 % 0 in
12:58 63.9 °F 48.4 °F 30.3 in East 2.4 mph 2.6 mph 57 % 0 in
13:03 64.6 °F 48.6 °F 30.3 in NNE 2.3 mph 2.3 mph 56 % 0 in
13:08 64.8 °F 49.3 °F 30.3 in NE 2.4 mph 2.4 mph 57 % 0 in
13:13 65.5 °F 49.8 °F 30.3 in NNE 2.9 mph 2.9 mph 57 % 0 in
13:18 66.2 °F 50 °F 30.3 in NNE 3.5 mph 3.5 mph 56 % 0 in
13:23 66.9 °F 50.2 °F 30.3 in NNW 5.8 mph 5.8 mph 55 % 0 in
13:28 67.3 °F 50.5 °F 30.3 in SSE 2.3 mph 2.3 mph 55 % 0 in
13:33 68 °F 51.3 °F 30.3 in SSW 2.3 mph 2.3 mph 55 % 0 in
13:38 68.9 °F 51.6 °F 30.3 in SW 4.6 mph 4.6 mph 54 % 0 in
13:43 69.1 °F 51.3 °F 30.2 in SW 5.8 mph 5.8 mph 53 % 0 in
13:48 68.5 °F 50.2 °F 30.2 in SSE 5.8 mph 5.8 mph 52 % 0 in
13:53 68.7 °F 50.9 °F 30.2 in West 4.6 mph 4.6 mph 53 % 0 in
13:58 68.2 °F 49.8 °F 30.2 in North 3.5 mph 3.5 mph 52 % 0 in
14:03 68.5 °F 50.2 °F 30.2 in NNW 3.5 mph 3.5 mph 52 % 0 in
14:08 69.1 °F 50.7 °F 30.2 in West 3.6 mph 3.6 mph 52 % 0 in
14:13 69.3 °F 50.9 °F 30.2 in SSW 3.1 mph 3.1 mph 52 % 0 in
14:18 69.4 °F 51.1 °F 30.2 in West 3.8 mph 3.8 mph 52 % 0 in
14:23 68.9 °F 50.5 °F 30.2 in WNW 3.5 mph 3.5 mph 52 % 0 in
14:28 68.7 °F 49.8 °F 30.2 in SW 3.5 mph 3.5 mph 51 % 0 in
14:33 69.1 °F 50.2 °F 30.2 in SSW 4.6 mph 4.6 mph 51 % 0 in
14:38 69.3 °F 50.4 °F 30.2 in SW 4.6 mph 4.6 mph 51 % 0 in
14:43 69.3 °F 50.4 °F 30.2 in SW 4.6 mph 4.6 mph 51 % 0 in
14:48 69.3 °F 50.4 °F 30.2 in West 4.6 mph 4.6 mph 51 % 0 in
14:53 69.4 °F 50.5 °F 30.2 in SW 4.6 mph 4.6 mph 51 % 0 in
14:58 69.4 °F 50 °F 30.2 in West 4.6 mph 4.6 mph 50 % 0 in
15:03 70 °F 49.8 °F 30.2 in SW 5.8 mph 5.8 mph 49 % 0 in
15:08 69.8 °F 49.8 °F 30.2 in WSW 5.8 mph 5.8 mph 49 % 0 in
15:13 70.3 °F 50.4 °F 30.2 in NW 3.5 mph 3.5 mph 49 % 0 in
15:18 70.7 °F 50.5 °F 30.2 in West 8.1 mph 8.1 mph 49 % 0 in
15:23 70.9 °F 50.2 °F 30.2 in WSW 3.5 mph 3.5 mph 48 % 0 in
15:28 71.2 °F 50.5 °F 30.2 in West 3.5 mph 3.5 mph 48 % 0 in
15:33 71.1 °F 50.4 °F 30.2 in SSW 5.4 mph 5.4 mph 48 % 0 in
15:38 71.4 °F 50.7 °F 30.2 in SSW 4.6 mph 4.6 mph 48 % 0 in
15:43 71.8 °F 50.5 °F 30.2 in SSE 2.3 mph 2.3 mph 47 % 0 in
15:48 70.9 °F 49.6 °F 30.2 in ESE 2.3 mph 2.3 mph 47 % 0 in
15:53 71.4 °F 50.2 °F 30.2 in South 5.8 mph 5.8 mph 47 % 0 in
15:58 71.8 °F 50.5 °F 30.2 in NNW 1.4 mph 1.4 mph 47 % 0 in
16:03 71.8 °F 49.8 °F 30.2 in WSW 3.5 mph 3.5 mph 46 % 0 in
16:08 71.4 °F 50.2 °F 30.2 in SW 2.3 mph 2.3 mph 47 % 0 in
16:13 71.6 °F 49.6 °F 30.2 in SW 2.3 mph 2.6 mph 46 % 0 in
16:18 72.1 °F 50.7 °F 30.2 in WSW 2.3 mph 2.3 mph 47 % 0 in
16:23 72.3 °F 50.4 °F 30.2 in SW 2.3 mph 2.3 mph 46 % 0 in
16:28 72.3 °F 50.4 °F 30.2 in West 2.3 mph 2.3 mph 46 % 0 in
16:33 72.1 °F 50.2 °F 30.2 in NNW 3.5 mph 3.5 mph 46 % 0 in
16:38 71.8 °F 49.8 °F 30.2 in NW 4.6 mph 4.6 mph 46 % 0 in
16:43 71.4 °F 49.6 °F 30.2 in West 3.1 mph 3.1 mph 46 % 0 in
16:48 71.8 °F 49.8 °F 30.2 in WNW 3.1 mph 3.1 mph 46 % 0 in
16:53 71.8 °F 49.8 °F 30.2 in NNW 3.5 mph 3.5 mph 46 % 0 in
16:58 71.4 °F 49.6 °F 30.2 in SW 3.6 mph 3.6 mph 46 % 0 in
17:03 71.4 °F 49.6 °F 30.2 in West 2 mph 2 mph 46 % 0 in
17:08 71.6 °F 49.6 °F 30.2 in WSW 1.4 mph 1.4 mph 46 % 0 in
17:13 71.6 °F 49.6 °F 30.2 in WSW 3.5 mph 3.5 mph 46 % 0 in
17:18 71.2 °F 49.5 °F 30.2 in NW 3.5 mph 3.5 mph 46 % 0 in
17:23 71.4 °F 49.6 °F 30.2 in NNW 2.3 mph 2.3 mph 46 % 0 in
17:28 71.6 °F 49.6 °F 30.2 in West 3.5 mph 3.5 mph 46 % 0 in
17:33 71.6 °F 49.6 °F 30.2 in West 2.2 mph 2.2 mph 46 % 0 in
17:38 71.4 °F 49.6 °F 30.2 in SW 3.5 mph 3.5 mph 46 % 0 in
17:39 71.4 °F 49.6 °F 30.2 in WSW 2.3 mph 2.3 mph 46 % 0 in
17:44 71.2 °F 49.5 °F 30.2 in West 2.3 mph 2.3 mph 46 % 0 in
17:54 70.7 °F 48.4 °F 30.2 in NW 2.2 mph   45 % 0 in
17:59 70.2 °F 47.8 °F 30.2 in NE 3.5 mph 3.5 mph 45 % 0 in
18:04 69.8 °F 47.5 °F 30.2 in West 2.4 mph 2.4 mph 45 % 0 in
18:09 69.6 °F 47.3 °F 30.2 in WSW 2.9 mph 2.9 mph 45 % 0 in
18:14 69.3 °F 46.9 °F 30.2 in NW 2.3 mph 2.3 mph 45 % 0 in
18:19 69.1 °F 46.8 °F 30.2 in WNW 4.6 mph 4.6 mph 45 % 0 in
18:24 68.7 °F 46.6 °F 30.2 in West 2.3 mph 2.3 mph 45 % 0 in
18:29 68.4 °F 46.2 °F 30.2 in NW 2.3 mph 2.3 mph 45 % 0 in
18:34 68 °F 45.3 °F 30.2 in WNW 2.3 mph 2.3 mph 44 % 0 in
18:39 67.6 °F 45 °F 30.2 in West 2.3 mph 2.3 mph 44 % 0 in
18:44 67.3 °F 44.6 °F 30.2 in WNW 2.3 mph 2.3 mph 44 % 0 in
18:49 66.6 °F 44.1 °F 30.2 in WNW 2.3 mph 2.3 mph 44 % 0 in
18:54 66 °F 44.6 °F 30.2 in West 2.6 mph 2.6 mph 46 % 0 in
18:59 65.7 °F 44.2 °F 30.2 in WNW 2.3 mph 2.3 mph 46 % 0 in
19:04 65.1 °F 43.9 °F 30.2 in NE 2.3 mph 2.3 mph 46 % 0 in
19:09 64.8 °F 43.5 °F 30.2 in NE 2.3 mph 2.3 mph 46 % 0 in
19:14 64.2 °F 43 °F 30.2 in West 2.3 mph 2.3 mph 46 % 0 in
19:19 63.7 °F 43.2 °F 30.2 in NE 2.3 mph 2.3 mph 47 % 0 in
19:24 63.3 °F 42.6 °F 30.2 in ENE 1.4 mph 1.4 mph 47 % 0 in
19:25 55.4 °F 43 °F 30.2 in Calm   1 mph 63 % 0 in
19:29 63 °F 42.4 °F 30.2 in NNE 2.3 mph 2.3 mph 47 % 0 in
19:34 62.8 °F 42.8 °F 30.2 in West 1.2 mph   48 % 0 in
19:35 55.2 °F 42.8 °F 30.2 in WNW 1 mph 2 mph 63 % 0 in
19:39 62.4 °F 43 °F 30.2 in NNE 2.3 mph 2.3 mph 49 % 0 in
19:44 62.1 °F 42.6 °F 30.2 in North 2.3 mph 2.3 mph 49 % 0 in
19:45 55 °F 43.2 °F 30.2 in Calm   2 mph 64 % 0 in
19:49 61.9 °F 43 °F 30.2 in WNW 2.3 mph 2.3 mph 50 % 0 in
19:54 61.7 °F 43 °F 30.2 in NW 2.3 mph 2.3 mph 50 % 0 in
19:55 54.7 °F 42.6 °F 30.2 in Calm     64 % 0 in
19:59 61.5 °F 42.6 °F 30.2 in SSW 1.4 mph 1.4 mph 50 % 0 in
20:04 61.2 °F 43 °F 30.2 in WSW 1.2 mph   51 % 0 in
20:05 54.3 °F 42.8 °F 30.2 in Calm     65 % 0 in
20:09 60.8 °F 42.4 °F 30.2 in SW 2.6 mph 2.6 mph 51 % 0 in
20:14 60.4 °F 42.3 °F 30.2 in SW 2.6 mph 2.6 mph 51 % 0 in
20:15 53.8 °F 42.3 °F 30.2 in WNW 1 mph 2 mph 65 % 0 in
20:19 60.3 °F 42.1 °F 30.2 in SW 2.3 mph 2.3 mph 51 % 0 in
20:24 60.1 °F 42.4 °F 30.2 in Calm     52 % 0 in
20:25 53.8 °F 42.6 °F 30.2 in Calm   2 mph 66 % 0 in
20:29 60.1 °F 42.4 °F 30.2 in SW 1.4 mph 1.4 mph 52 % 0 in
20:34 60.3 °F 42.6 °F 30.2 in WSW 1.2 mph 1.2 mph 52 % 0 in
20:35 53.2 °F 41.7 °F 30.2 in WSW 2 mph 2 mph 65 % 0 in
20:39 60.1 °F 42.4 °F 30.3 in WSW 2.3 mph 2.3 mph 52 % 0 in
20:44 59.7 °F 42.6 °F 30.3 in WSW 2.4 mph 2.4 mph 53 % 0 in
20:45 52.9 °F 41.7 °F 30.3 in Calm   2 mph 66 % 0 in
20:49 59.5 °F 42.4 °F 30.3 in SW 2.3 mph 2.3 mph 53 % 0 in
20:54 59.4 °F 42.3 °F 30.2 in WSW 1.6 mph   53 % 0 in
20:55 53.1 °F 42.4 °F 30.3 in WSW 1 mph 2 mph 67 % 0 in
20:59 59.4 °F 42.6 °F 30.2 in WSW 1.2 mph 1.2 mph 54 % 0 in
21:04 59.2 °F 42.4 °F 30.2 in Calm     54 % 0 in
21:05 52.9 °F 42.3 °F 30.2 in Calm   2 mph 67 % 0 in
21:09 59.2 °F 42.4 °F 30.2 in Calm     54 % 0 in
21:14 59 °F 42.4 °F 30.2 in WSW 1.2 mph   54 % 0 in
21:15 52.9 °F 42.6 °F 30.2 in Calm   2 mph 68 % 0 in
21:19 58.6 °F 42.4 °F 30.2 in Calm     55 % 0 in
21:24 58.6 °F 42.4 °F 30.2 in Calm     55 % 0 in
21:25 52.9 °F 43 °F 30.2 in Calm   1 mph 69 % 0 in
21:29 58.6 °F 43 °F 30.2 in North 1.2 mph 1.4 mph 56 % 0 in
21:34 58.6 °F 43 °F 30.2 in Calm     56 % 0 in
21:35 52.7 °F 42.8 °F 30.2 in NE 1 mph 2 mph 69 % 0 in
21:39 58.6 °F 43 °F 30.2 in Calm     56 % 0 in
21:44 58.3 °F 42.6 °F 30.2 in Calm     56 % 0 in
21:45 52.5 °F 42.6 °F 30.2 in Calm   1 mph 69 % 0 in
21:49 58.3 °F 43.2 °F 30.2 in Calm     57 % 0 in
21:54 58.1 °F 43 °F 30.2 in WSW 2.3 mph 2.3 mph 57 % 0 in
21:55 52 °F 42.4 °F 30.2 in Calm   1 mph 70 % 0 in
21:59 57.4 °F 42.3 °F 30.2 in WSW 2 mph 2 mph 57 % 0 in
22:04 57.2 °F 42.1 °F 30.2 in SW 2.3 mph 2.4 mph 57 % 0 in
22:05 51.6 °F 41.7 °F 30.2 in Calm   2 mph 69 % 0 in
22:09 57.2 °F 42.4 °F 30.2 in SW 1.4 mph 1.4 mph 58 % 0 in
22:14 57.2 °F 42.4 °F 30.2 in SW 1.2 mph 1.2 mph 58 % 0 in
22:15 51.8 °F 42.3 °F 30.2 in Calm     70 % 0 in
22:19 57.4 °F 42.6 °F 30.2 in Calm     58 % 0 in
22:24 57.6 °F 43 °F 30.2 in NW 2.3 mph 2.3 mph 58 % 0 in
22:25 52 °F 42.4 °F 30.2 in Calm   2 mph 70 % 0 in
22:29 57.6 °F 43 °F 30.2 in Calm     58 % 0 in
22:34 57.7 °F 43.2 °F 30.2 in Calm     58 % 0 in
22:35 51.8 °F 42.3 °F 30.2 in WSW 1 mph 3 mph 70 % 0 in
22:39 57.9 °F 43.7 °F 30.2 in Calm     59 % 0 in
22:44 57.9 °F 43.7 °F 30.2 in Calm     59 % 0 in
22:45 51.6 °F 42.4 °F 30.2 in Calm   3 mph 71 % 0 in
22:49 57.9 °F 44.1 °F 30.2 in North 2.3 mph 2.3 mph 60 % 0 in
22:54 57.6 °F 43.9 °F 30.2 in North 1.2 mph   60 % 0 in
22:55 51.6 °F 43 °F 30.2 in Calm   1 mph 72 % 0 in
22:59 57.6 °F 43.9 °F 30.2 in Calm     60 % 0 in
23:04 57.4 °F 43.5 °F 30.2 in Calm     60 % 0 in
23:05 51.6 °F 42.4 °F 30.2 in Calm   1 mph 71 % 0 in
23:09 57.2 °F 43.3 °F 30.2 in Calm     60 % 0 in
23:14 57.2 °F 43.3 °F 30.2 in Calm     60 % 0 in
23:15 51.4 °F 42.6 °F 30.2 in NE 1 mph 2 mph 72 % 0 in
23:19 57 °F 43.7 °F 30.2 in Calm     61 % 0 in
23:24 56.5 °F 43.2 °F 30.2 in Calm     61 % 0 in
23:25 51.4 °F 43.2 °F 30.2 in NNE 1 mph 1 mph 73 % 0 in
23:29 56.3 °F 43 °F 30.2 in WNW 1.2 mph   61 % 0 in
23:34 55.9 °F 42.6 °F 30.2 in WSW 1.2 mph 1.2 mph 61 % 0 in
23:35 51.3 °F 43 °F 30.2 in NNE 1 mph 2 mph 73 % 0 in
23:39 55.8 °F 42.4 °F 30.2 in Calm     61 % 0 in
23:44 55.6 °F 42.3 °F 30.2 in WSW 2.3 mph 2.3 mph 61 % 0 in
23:45 50.5 °F 41.7 °F 30.2 in West 2 mph 3 mph 72 % 0 in
23:49 55.4 °F 42.6 °F 30.2 in North 1.4 mph   62 % 0 in
23:54 55.2 °F 42.4 °F 30.2 in WSW 1.4 mph 1.4 mph 62 % 0 in
23:55 50.4 °F 42.1 °F 30.2 in WSW 1 mph 2 mph 73 % 0 in
23:59 55.4 °F 42.6 °F 30.2 in WSW 2.3 mph 2.3 mph 62 % 0 in
Meteo Sesrovires
Elogis d' Weather Underground - 3.75 mb

Guio original per  Jim McMurry - jmcmurry@mwt.net Adaptat per a la plantilla per  Wim van der Kuil - Leuven-Template.eu

Trobareu la nostra informacio del temps tambe a:

Weather Underground

AWEKAS